createdAt,value
2023-02-17T00:01:51.447Z,9.88
2023-02-17T00:04:19.663Z,9.48
2023-02-17T00:06:47.905Z,8.73
2023-02-17T00:09:16.259Z,9.73
2023-02-17T00:11:45.816Z,8.57
2023-02-17T00:14:14.930Z,7.82
2023-02-17T00:16:43.154Z,6.65
2023-02-17T00:19:25.238Z,8.10
2023-02-17T00:21:55.689Z,8.13
2023-02-17T00:24:24.605Z,8.32
2023-02-17T00:26:54.439Z,8.75
2023-02-17T00:29:22.971Z,8.43
2023-02-17T00:31:53.388Z,7.25
2023-02-17T00:34:24.448Z,8.20
2023-02-17T00:36:53.648Z,7.68
2023-02-17T00:39:21.840Z,8.07
2023-02-17T00:41:51.062Z,6.85
2023-02-17T00:44:24.842Z,9.15
2023-02-17T00:46:54.347Z,8.88
2023-02-17T00:49:24.309Z,6.85
2023-02-17T00:51:53.637Z,8.55
2023-02-17T00:54:22.403Z,8.95
2023-02-17T00:56:50.936Z,7.53
2023-02-17T00:59:20.485Z,8.75
2023-02-17T01:01:49.187Z,8.48
2023-02-17T01:04:17.389Z,7.63
2023-02-17T01:06:47.858Z,7.70
2023-02-17T01:09:16.428Z,5.78
2023-02-17T01:11:44.736Z,4.82
2023-02-17T01:14:14.768Z,6.40
2023-02-17T01:16:49.015Z,6.45
2023-02-17T01:19:19.520Z,8.02
2023-02-17T01:21:51.151Z,5.78
2023-02-17T01:24:19.427Z,8.77
2023-02-17T01:26:47.858Z,8.02
2023-02-17T01:29:16.107Z,8.68
2023-02-17T01:31:46.900Z,7.97
2023-02-17T01:34:15.139Z,9.93
2023-02-17T01:36:43.303Z,6.70
2023-02-17T01:39:14.605Z,7.28
2023-02-17T01:41:43.304Z,8.18
2023-02-17T01:44:15.696Z,6.40
2023-02-17T01:46:45.124Z,7.30
2023-02-17T01:49:36.309Z,8.00
2023-02-17T01:52:12.056Z,9.75
2023-02-17T01:54:43.710Z,8.15
2023-02-17T01:57:14.119Z,6.82
2023-02-17T01:59:42.982Z,8.02
2023-02-17T02:02:11.544Z,7.30
2023-02-17T02:04:44.767Z,6.95
2023-02-17T02:07:18.766Z,5.93
2023-02-17T02:09:51.069Z,9.32
2023-02-17T02:12:22.634Z,7.35
2023-02-17T02:14:52.439Z,7.82
2023-02-17T02:17:31.025Z,7.25
2023-02-17T02:20:36.637Z,9.10
2023-02-17T02:23:19.236Z,6.28
2023-02-17T02:26:15.353Z,6.72
2023-02-17T02:29:06.226Z,7.85
2023-02-17T02:31:47.003Z,6.93
2023-02-17T02:34:21.993Z,7.95
2023-02-17T02:36:57.855Z,7.57
2023-02-17T02:39:30.269Z,6.25
2023-02-17T02:42:02.490Z,7.13
2023-02-17T02:44:31.363Z,7.45
2023-02-17T02:47:00.377Z,7.53
2023-02-17T02:49:32.707Z,6.38
2023-02-17T02:52:06.804Z,7.03
2023-02-17T02:54:46.778Z,7.90
2023-02-17T02:57:33.364Z,6.65
2023-02-17T03:00:12.895Z,7.07
2023-02-17T03:02:47.893Z,7.13
2023-02-17T03:05:26.158Z,6.97
2023-02-17T03:07:59.593Z,6.38
2023-02-17T03:10:28.087Z,7.15
2023-02-17T03:12:56.948Z,6.85
2023-02-17T03:15:29.910Z,7.50
2023-02-17T03:17:58.818Z,5.63
2023-02-17T03:20:31.695Z,6.80
2023-02-17T03:23:00.558Z,6.72
2023-02-17T03:25:30.496Z,6.28
2023-02-17T03:27:58.825Z,6.80
2023-02-17T03:30:27.167Z,5.97
2023-02-17T03:32:55.434Z,6.35
2023-02-17T03:35:23.764Z,6.38
2023-02-17T03:37:53.728Z,6.18
2023-02-17T03:40:22.258Z,6.47
2023-02-17T03:42:50.529Z,7.45
2023-02-17T03:45:19.062Z,6.35
2023-02-17T03:47:47.219Z,4.90
2023-02-17T03:50:15.782Z,5.35
2023-02-17T03:52:43.953Z,6.95
2023-02-17T03:55:13.536Z,5.82
2023-02-17T03:57:41.761Z,6.28
2023-02-17T04:00:11.132Z,6.22
2023-02-17T04:02:44.196Z,5.90
2023-02-17T04:05:13.594Z,6.03
2023-02-17T04:07:42.038Z,6.22
2023-02-17T04:10:11.149Z,6.47
2023-02-17T04:12:40.682Z,6.20
2023-02-17T04:15:10.288Z,6.55
2023-02-17T04:17:39.077Z,5.50
2023-02-17T04:20:09.313Z,5.35
2023-02-17T04:22:37.598Z,5.63
2023-02-17T04:25:06.933Z,5.93
2023-02-17T04:27:35.212Z,5.50
2023-02-17T04:30:07.167Z,5.75
2023-02-17T04:32:35.586Z,4.72
2023-02-17T04:35:04.294Z,5.43
2023-02-17T04:37:32.543Z,5.38
2023-02-17T04:40:00.776Z,5.28
2023-02-17T04:42:29.050Z,5.32
2023-02-17T04:44:57.427Z,4.15
2023-02-17T04:47:27.166Z,4.68
2023-02-17T04:49:55.435Z,4.95
2023-02-17T04:52:23.844Z,5.10
2023-02-17T04:54:52.103Z,4.88
2023-02-17T04:57:20.312Z,5.18
2023-02-17T04:59:48.521Z,5.45
2023-02-17T05:02:16.792Z,4.00
2023-02-17T05:04:46.848Z,5.88
2023-02-17T05:07:15.144Z,5.40
2023-02-17T05:09:43.470Z,5.00
2023-02-17T05:12:11.691Z,5.18
2023-02-17T05:14:40.059Z,5.88
2023-02-17T05:17:08.274Z,5.32
2023-02-17T05:19:36.736Z,4.47
2023-02-17T05:22:06.427Z,4.97
2023-02-17T05:24:34.755Z,5.97
2023-02-17T05:27:03.608Z,4.57
2023-02-17T05:29:32.198Z,4.15
2023-02-17T05:32:00.399Z,4.32
2023-02-17T05:34:28.591Z,5.55
2023-02-17T05:36:57.002Z,3.90
2023-02-17T05:39:26.734Z,4.93
2023-02-17T05:41:56.684Z,4.65
2023-02-17T05:44:25.037Z,4.65
2023-02-17T05:46:53.328Z,4.88
2023-02-17T05:49:21.616Z,3.92
2023-02-17T05:51:49.847Z,3.25
2023-02-17T05:54:18.390Z,3.03
2023-02-17T05:56:48.145Z,3.38
2023-02-17T05:59:16.766Z,3.40
2023-02-17T06:01:44.936Z,3.92
2023-02-17T06:04:13.178Z,3.53
2023-02-17T06:06:41.406Z,3.38
2023-02-17T06:09:10.376Z,3.63
2023-02-17T06:11:38.647Z,2.92
2023-02-17T06:14:08.261Z,3.22
2023-02-17T06:16:36.534Z,2.72
2023-02-17T06:19:05.980Z,3.15
2023-02-17T06:21:34.261Z,3.88
2023-02-17T06:24:02.796Z,3.00
2023-02-17T06:26:30.978Z,4.22
2023-02-17T06:28:59.253Z,3.25
2023-02-17T06:31:29.058Z,2.80
2023-02-17T06:33:57.820Z,3.22
2023-02-17T06:36:25.976Z,3.88
2023-02-17T06:38:54.192Z,3.05
2023-02-17T06:41:22.450Z,3.92
2023-02-17T06:43:50.670Z,3.90
2023-02-17T06:46:18.972Z,3.55
2023-02-17T06:48:48.656Z,3.90
2023-02-17T06:51:16.931Z,3.20
2023-02-17T06:53:45.578Z,3.50
2023-02-17T06:56:13.795Z,3.70
2023-02-17T06:58:42.318Z,3.42
2023-02-17T07:01:18.424Z,2.83
2023-02-17T07:03:48.084Z,3.42
2023-02-17T07:06:16.425Z,4.00
2023-02-17T07:08:44.768Z,3.22
2023-02-17T07:11:15.189Z,2.85
2023-02-17T07:13:44.066Z,3.38
2023-02-17T07:16:14.274Z,4.50
2023-02-17T07:18:43.011Z,3.00
2023-02-17T07:21:12.808Z,3.42
2023-02-17T07:23:41.403Z,3.58
2023-02-17T07:26:11.444Z,3.25
2023-02-17T07:28:41.331Z,2.97
2023-02-17T07:31:11.498Z,3.40
2023-02-17T07:33:40.736Z,3.30
2023-02-17T07:36:10.300Z,3.10
2023-02-17T07:38:40.924Z,3.63
2023-02-17T07:41:11.548Z,3.10
2023-02-17T07:43:40.268Z,3.95
2023-02-17T07:46:11.014Z,3.28
2023-02-17T07:48:40.133Z,2.33
2023-02-17T07:51:10.172Z,3.45
2023-02-17T07:53:40.860Z,3.78
2023-02-17T07:56:10.917Z,3.80
2023-02-17T07:58:40.877Z,2.63
2023-02-17T08:01:09.399Z,3.47
2023-02-17T08:03:37.796Z,3.75
2023-02-17T08:06:09.798Z,3.15
2023-02-17T08:08:56.940Z,3.28
2023-02-17T08:11:39.127Z,3.88
2023-02-17T08:14:07.759Z,2.10
2023-02-17T08:16:36.209Z,3.72
2023-02-17T08:19:07.432Z,3.55
2023-02-17T08:21:36.072Z,3.08
2023-02-17T08:24:06.478Z,2.90
2023-02-17T08:26:34.860Z,2.60
2023-02-17T08:29:03.086Z,3.60
2023-02-17T08:31:33.695Z,1.85
2023-02-17T08:34:04.015Z,3.42
2023-02-17T08:36:32.693Z,3.17
2023-02-17T08:39:01.645Z,2.65
2023-02-17T08:41:32.910Z,3.20
2023-02-17T08:44:03.419Z,3.15
2023-02-17T08:46:31.908Z,2.70
2023-02-17T08:49:00.175Z,3.33
2023-02-17T08:51:28.521Z,3.45
2023-02-17T08:53:58.524Z,3.17
2023-02-17T08:56:28.001Z,3.38
2023-02-17T08:58:58.570Z,3.08
2023-02-17T09:01:30.614Z,2.97
2023-02-17T09:04:00.546Z,2.58
2023-02-17T09:06:34.744Z,2.60
2023-02-17T09:09:03.250Z,2.42
2023-02-17T09:11:31.741Z,2.92
2023-02-17T09:14:01.587Z,2.70
2023-02-17T09:16:30.350Z,2.70
2023-02-17T09:18:58.673Z,2.83
2023-02-17T09:21:27.106Z,2.90
2023-02-17T09:23:55.332Z,2.78
2023-02-17T09:26:24.032Z,2.53
2023-02-17T09:28:52.411Z,2.72
2023-02-17T09:31:24.110Z,2.83
2023-02-17T09:33:52.751Z,3.08
2023-02-17T09:36:23.457Z,2.45
2023-02-17T09:38:52.705Z,1.92
2023-02-17T09:41:25.984Z,2.53
2023-02-17T09:43:56.273Z,2.08
2023-02-17T09:46:33.735Z,2.00
2023-02-17T09:49:08.748Z,2.45
2023-02-17T09:51:45.759Z,2.33
2023-02-17T09:54:20.658Z,2.58
2023-02-17T09:56:54.208Z,1.85
2023-02-17T09:59:29.014Z,2.70
2023-02-17T10:02:02.987Z,2.05
2023-02-17T10:04:37.585Z,2.50
2023-02-17T10:07:12.267Z,2.00
2023-02-17T10:09:48.347Z,1.85
2023-02-17T10:12:46.958Z,2.13
2023-02-17T10:15:22.185Z,1.98
2023-02-17T10:18:02.514Z,1.77
2023-02-17T10:20:59.446Z,2.40
2023-02-17T10:23:32.939Z,1.63
2023-02-17T10:26:17.526Z,1.80
2023-02-17T10:31:46.278Z,1.85
2023-02-17T10:34:25.372Z,1.85
2023-02-17T10:37:00.521Z,2.28
2023-02-17T10:39:47.420Z,2.03
2023-02-17T10:42:21.654Z,2.03
2023-02-17T10:44:53.546Z,1.50
2023-02-17T10:47:25.415Z,1.70
2023-02-17T10:49:57.473Z,1.48
2023-02-17T10:52:33.315Z,1.92
2023-02-17T10:55:21.980Z,2.05
2023-02-17T10:58:00.525Z,1.67
2023-02-17T11:00:29.555Z,0.90
2023-02-17T11:02:57.776Z,2.03
2023-02-17T11:05:29.380Z,1.85
2023-02-17T11:07:59.968Z,1.85
2023-02-17T11:10:32.854Z,1.30
2023-02-17T11:13:03.685Z,2.40
2023-02-17T11:15:36.634Z,1.40
2023-02-17T11:18:12.654Z,1.63
2023-02-17T11:20:42.367Z,1.33
2023-02-17T11:23:24.979Z,1.50
2023-02-17T11:26:00.178Z,1.65
2023-02-17T11:28:28.596Z,1.60
2023-02-17T11:30:59.149Z,1.58
2023-02-17T11:33:33.892Z,1.63
2023-02-17T11:36:04.600Z,1.43
2023-02-17T11:38:43.402Z,1.90
2023-02-17T11:41:12.350Z,1.35
2023-02-17T11:43:53.273Z,0.90
2023-02-17T11:46:30.901Z,1.60
2023-02-17T11:49:10.663Z,0.80
2023-02-17T11:51:53.037Z,0.90
2023-02-17T11:54:29.218Z,1.40
2023-02-17T11:57:07.516Z,0.82
2023-02-17T11:59:48.806Z,1.35
2023-02-17T12:02:27.633Z,1.40
2023-02-17T12:05:12.625Z,1.20
2023-02-17T12:08:15.151Z,0.90
2023-02-17T12:10:54.534Z,1.33
2023-02-17T12:13:37.391Z,1.40
2023-02-17T12:16:19.765Z,1.15
2023-02-17T12:18:57.098Z,1.08
2023-02-17T12:21:44.953Z,1.20
2023-02-17T12:24:33.392Z,0.77
2023-02-17T12:27:08.531Z,0.77
2023-02-17T12:29:54.914Z,0.77
2023-02-17T12:32:35.562Z,1.25
2023-02-17T12:35:17.157Z,0.98
2023-02-17T12:37:53.058Z,1.30
2023-02-17T12:40:39.993Z,1.10
2023-02-17T12:43:18.054Z,0.70
2023-02-17T12:45:50.112Z,0.70
2023-02-17T12:48:27.898Z,0.85
2023-02-17T12:51:01.459Z,0.80
2023-02-17T12:53:41.288Z,0.57
2023-02-17T12:56:38.591Z,0.80
2023-02-17T12:59:13.875Z,1.10
2023-02-17T13:04:19.123Z,1.08
2023-02-17T13:06:53.355Z,1.23
2023-02-17T13:09:30.805Z,0.68
2023-02-17T13:12:12.289Z,0.73
2023-02-17T13:14:42.351Z,0.57
2023-02-17T13:17:24.565Z,0.85
2023-02-17T13:20:20.196Z,0.70
2023-02-17T13:22:48.991Z,0.60
2023-02-17T13:25:29.939Z,0.68
2023-02-17T13:28:01.470Z,1.17
2023-02-17T13:30:39.161Z,0.68
2023-02-17T13:33:27.278Z,1.05
2023-02-17T13:35:55.483Z,0.90
2023-02-17T13:38:29.781Z,1.02
2023-02-17T13:41:01.465Z,0.73
2023-02-17T13:43:31.924Z,0.95
2023-02-17T13:46:02.464Z,1.08
2023-02-17T13:48:33.392Z,0.80
2023-02-17T13:51:03.330Z,0.95
2023-02-17T13:53:35.503Z,0.90
2023-02-17T13:56:08.574Z,0.70
2023-02-17T13:58:40.590Z,1.00
2023-02-17T14:01:16.146Z,0.80
2023-02-17T14:03:48.897Z,0.75
2023-02-17T14:06:25.707Z,0.90
2023-02-17T14:08:54.202Z,0.77
2023-02-17T14:11:24.963Z,0.80
2023-02-17T14:13:57.828Z,1.13
2023-02-17T14:16:32.069Z,1.17
2023-02-17T14:19:05.387Z,0.60
2023-02-17T14:21:34.247Z,1.00
2023-02-17T14:24:02.725Z,0.57
2023-02-17T14:26:36.645Z,0.80
2023-02-17T14:29:09.166Z,0.77
2023-02-17T14:31:41.315Z,0.70
2023-02-17T14:34:14.652Z,0.98
2023-02-17T14:36:42.947Z,0.82
2023-02-17T14:39:15.729Z,0.82
2023-02-17T14:41:44.550Z,0.50
2023-02-17T14:44:14.536Z,0.80
2023-02-17T14:46:42.860Z,0.90
2023-02-17T14:49:11.104Z,1.00
2023-02-17T14:51:40.332Z,0.60
2023-02-17T14:54:16.173Z,0.93
2023-02-17T14:56:47.641Z,0.77
2023-02-17T14:59:17.749Z,0.40
2023-02-17T15:01:46.009Z,0.60
2023-02-17T15:04:14.294Z,0.75
2023-02-17T15:06:44.438Z,1.13
2023-02-17T15:09:15.156Z,0.63
2023-02-17T15:11:46.364Z,0.60
2023-02-17T15:14:18.540Z,0.80
2023-02-17T15:16:47.848Z,0.70
2023-02-17T15:19:18.525Z,0.60
2023-02-17T15:21:49.780Z,0.70
2023-02-17T15:24:20.730Z,0.70
2023-02-17T15:26:49.134Z,0.98
2023-02-17T15:29:21.393Z,0.80
2023-02-17T15:31:50.297Z,0.77
2023-02-17T15:34:20.337Z,0.93
2023-02-17T15:36:50.333Z,0.93
2023-02-17T15:39:21.107Z,0.75
2023-02-17T15:41:55.809Z,0.55
2023-02-17T15:44:27.396Z,0.60
2023-02-17T15:47:11.573Z,0.90
2023-02-17T15:49:40.134Z,1.10
2023-02-17T15:52:13.493Z,0.68
2023-02-17T15:54:42.832Z,0.95
2023-02-17T15:57:20.326Z,0.75
2023-02-17T15:59:50.628Z,1.08
2023-02-17T16:02:22.307Z,1.23
2023-02-17T16:04:51.223Z,0.75
2023-02-17T16:07:19.496Z,0.98
2023-02-17T16:09:48.124Z,0.85
2023-02-17T16:12:26.433Z,0.85
2023-02-17T16:14:56.793Z,0.88
2023-02-17T16:17:25.880Z,0.45
2023-02-17T16:19:54.203Z,0.70
2023-02-17T16:22:22.591Z,1.02
2023-02-17T16:24:51.163Z,0.80
2023-02-17T16:27:19.447Z,0.95
2023-02-17T16:29:47.954Z,0.65
2023-02-17T16:32:17.738Z,1.17
2023-02-17T16:34:46.849Z,0.85
2023-02-17T16:37:18.432Z,0.75
2023-02-17T16:39:47.542Z,0.90
2023-02-17T16:42:15.891Z,0.80
2023-02-17T16:44:44.602Z,0.75
2023-02-17T16:47:22.529Z,0.95
2023-02-17T16:49:52.030Z,1.00
2023-02-17T16:52:25.216Z,0.75
2023-02-17T16:54:53.849Z,0.82
2023-02-17T16:57:22.719Z,1.27
2023-02-17T16:59:51.383Z,1.30
2023-02-17T17:02:21.902Z,1.50
2023-02-17T17:04:50.345Z,1.33
2023-02-17T17:07:21.245Z,1.17
2023-02-17T17:10:14.404Z,1.42
2023-02-17T17:12:38.107Z,1.73
2023-02-17T17:15:07.071Z,1.35
2023-02-17T17:17:40.832Z,1.38
2023-02-17T17:20:14.277Z,1.55
2023-02-17T17:22:42.702Z,1.50
2023-02-17T17:25:11.002Z,1.33
2023-02-17T17:27:39.209Z,1.25
2023-02-17T17:30:09.047Z,1.73
2023-02-17T17:32:38.743Z,1.70
2023-02-17T17:35:08.016Z,1.75
2023-02-17T17:37:38.500Z,1.45
2023-02-17T17:40:31.469Z,2.30
2023-02-17T17:42:59.833Z,1.90
2023-02-17T17:45:28.260Z,1.63
2023-02-17T17:47:57.914Z,1.70
2023-02-17T17:50:26.130Z,1.60
2023-02-17T17:52:54.424Z,1.80
2023-02-17T17:55:22.638Z,1.45
2023-02-17T17:57:51.350Z,1.65
2023-02-17T18:00:20.511Z,1.52
2023-02-17T18:02:49.221Z,1.50
2023-02-17T18:05:18.896Z,1.17
2023-02-17T18:07:49.763Z,1.55
2023-02-17T18:10:18.343Z,1.40
2023-02-17T18:12:48.484Z,1.48
2023-02-17T18:15:18.138Z,1.73
2023-02-17T18:17:47.931Z,1.27
2023-02-17T18:20:16.738Z,1.52
2023-02-17T18:22:46.667Z,1.58
2023-02-17T18:25:14.916Z,1.20
2023-02-17T18:27:45.679Z,1.45
2023-02-17T18:30:17.966Z,1.30
2023-02-17T18:32:46.552Z,2.25
2023-02-17T18:35:15.489Z,1.50
2023-02-17T18:37:45.163Z,1.40
2023-02-17T18:40:18.244Z,1.20
2023-02-17T18:42:46.675Z,1.25
2023-02-17T18:45:16.364Z,1.30
2023-02-17T18:47:46.318Z,1.38
2023-02-17T18:50:16.277Z,1.48
2023-02-17T18:52:45.753Z,1.80
2023-02-17T18:55:16.087Z,1.42
2023-02-17T18:57:45.715Z,1.73
2023-02-17T19:00:16.676Z,1.58
2023-02-17T19:02:45.398Z,1.17
2023-02-17T19:05:14.483Z,1.17
2023-02-17T19:07:43.472Z,1.73
2023-02-17T19:10:12.524Z,1.27
2023-02-17T19:12:42.526Z,1.98
2023-02-17T19:15:11.028Z,1.80
2023-02-17T19:17:39.291Z,1.75
2023-02-17T19:20:08.980Z,1.75
2023-02-17T19:22:38.066Z,1.63
2023-02-17T19:25:07.059Z,2.30
2023-02-17T19:27:35.526Z,2.40
2023-02-17T19:30:05.523Z,1.80
2023-02-17T19:32:34.577Z,1.65
2023-02-17T19:35:02.839Z,1.75
2023-02-17T19:37:31.064Z,2.10
2023-02-17T19:39:59.246Z,1.98
2023-02-17T19:42:27.605Z,1.85
2023-02-17T19:44:55.845Z,1.90
2023-02-17T19:47:25.777Z,2.33
2023-02-17T19:49:53.989Z,1.58
2023-02-17T19:52:22.514Z,2.17
2023-02-17T19:54:50.859Z,2.10
2023-02-17T19:57:19.777Z,2.42
2023-02-17T19:59:48.005Z,2.55
2023-02-17T20:02:17.251Z,2.03
2023-02-17T20:04:46.907Z,1.77
2023-02-17T20:07:15.817Z,2.65
2023-02-17T20:09:43.967Z,2.30
2023-02-17T20:12:12.230Z,2.35
2023-02-17T20:14:40.365Z,1.88
2023-02-17T20:17:09.053Z,2.50
2023-02-17T20:19:38.705Z,2.08
2023-02-17T20:22:09.533Z,1.95
2023-02-17T20:24:40.701Z,2.38
2023-02-17T20:27:09.378Z,2.70
2023-02-17T20:29:37.532Z,2.50
2023-02-17T20:32:06.832Z,2.40
2023-02-17T20:34:39.281Z,2.22
2023-02-17T20:37:10.426Z,2.33
2023-02-17T20:39:40.190Z,2.28
2023-02-17T20:42:08.445Z,1.65
2023-02-17T20:44:36.888Z,1.70
2023-02-17T20:47:05.209Z,1.75
2023-02-17T20:49:33.434Z,2.08
2023-02-17T20:52:01.957Z,2.13
2023-02-17T20:54:31.719Z,2.80
2023-02-17T20:57:01.151Z,1.98
2023-02-17T20:59:29.552Z,2.65
2023-02-17T21:01:58.253Z,2.97
2023-02-17T21:04:26.505Z,1.88
2023-02-17T21:06:55.071Z,2.65
2023-02-17T21:09:23.312Z,3.00
2023-02-17T21:11:53.691Z,2.25
2023-02-17T21:14:21.873Z,2.75
2023-02-17T21:16:51.079Z,2.30
2023-02-17T21:19:19.602Z,2.20
2023-02-17T21:21:48.296Z,2.10
2023-02-17T21:24:16.545Z,2.53
2023-02-17T21:26:45.143Z,5.28
2023-02-17T21:29:14.724Z,2.53
2023-02-17T21:31:43.018Z,1.85
2023-02-17T21:34:11.309Z,1.83
2023-02-17T21:36:39.675Z,1.42
2023-02-17T21:39:07.917Z,1.92
2023-02-17T21:41:36.790Z,1.40
2023-02-17T21:44:22.700Z,1.00
2023-02-17T21:46:53.820Z,0.85
2023-02-17T21:49:21.994Z,0.90
2023-02-17T21:51:50.372Z,0.95
2023-02-17T21:54:18.639Z,0.60
2023-02-17T21:56:47.324Z,1.35
2023-02-17T21:59:15.536Z,1.00
2023-02-17T22:01:44.105Z,0.50
2023-02-17T22:04:13.709Z,0.63
2023-02-17T22:06:43.424Z,0.60
2023-02-17T22:09:14.605Z,0.77
2023-02-17T22:11:44.818Z,0.73
2023-02-17T22:14:15.448Z,0.60
2023-02-17T22:16:44.319Z,0.80
2023-02-17T22:19:17.732Z,2.15
2023-02-17T22:21:46.937Z,1.15
2023-02-17T22:24:15.714Z,1.33
2023-02-17T22:26:44.368Z,0.73
2023-02-17T22:29:12.606Z,1.00
2023-02-17T22:31:40.859Z,1.38
2023-02-17T22:34:16.132Z,1.35
2023-02-17T22:36:44.296Z,1.35
2023-02-17T22:39:12.497Z,1.42
2023-02-17T22:41:40.896Z,0.98
2023-02-17T22:44:09.515Z,1.40
2023-02-17T22:46:37.798Z,1.17
2023-02-17T22:49:06.282Z,1.20
2023-02-17T22:51:39.826Z,1.83
2023-02-17T22:54:09.399Z,2.60
2023-02-17T22:56:38.297Z,2.67
2023-02-17T22:59:08.188Z,2.70
2023-02-17T23:01:40.580Z,3.88
2023-02-17T23:04:12.145Z,4.13
2023-02-17T23:06:43.032Z,3.38
2023-02-17T23:09:16.533Z,3.78
2023-02-17T23:11:54.120Z,4.93
2023-02-17T23:14:25.651Z,3.90
2023-02-17T23:16:55.896Z,3.40
2023-02-17T23:19:24.880Z,4.50
2023-02-17T23:21:56.888Z,3.95
2023-02-17T23:24:26.545Z,3.38
2023-02-17T23:26:55.651Z,4.35
2023-02-17T23:29:24.351Z,3.72
2023-02-17T23:31:53.976Z,3.70
2023-02-17T23:34:22.296Z,4.03
2023-02-17T23:36:50.683Z,3.67
2023-02-17T23:39:20.268Z,4.10
2023-02-17T23:41:48.494Z,4.07
2023-02-17T23:44:16.818Z,3.50
2023-02-17T23:46:46.920Z,3.63
2023-02-17T23:49:17.395Z,4.20
2023-02-17T23:51:47.183Z,3.28
2023-02-17T23:54:16.072Z,3.13
2023-02-17T23:56:46.187Z,4.70
2023-02-17T23:59:14.946Z,4.35
